M I D A S
Marine Information and Data Acquisition System
Tripno 2151 of the Zeeleeuw from 2011-07-26 06:31:55 to 2011-07-26 13:52:39
Back to CruiseResearch ActivitiesStationsMapUnderway DataData graphs

EquipmentUnitsComments
TimeDGPSUTC
LatitudeDGPSDM.mWGS84
LongitudeDGPSDM.mWGS84
SpeedMeteo Stationm/sRelative wind speed
DirectionMeteo StationdegRelative wind direction
TemperatureMeteo Stationdeg CelciusAir temperature
PressureMeteo StationPaAtmospheric pressure
HumidityMeteo Station%Relative humidity
Missing or incorrect values are displayed as -999
Metereological data collected by the RV Zeeleeuw from 2011-07-26 06:33:15 to 2011-07-26 13:58:13
                                                                                    Next 1000 lines
Time Latitude Longitude Speed Direction Temperature Pressure Humidity
2011-07-26 06:33:25 51°13.636 2°56.016 -999 24 15.6 101150 46
2011-07-26 06:33:30 51°13.637 2°56.012 -999 79 15.6 101150 46
2011-07-26 06:33:35 51°13.638 2°56.008 -999 24 15.6 101150 46
2011-07-26 06:33:40 51°13.639 2°56.002 -999 55 15.6 101150 46
2011-07-26 06:33:46 51°13.641 2°55.995 -999 24 15.6 101160 46
2011-07-26 06:33:52 51°13.643 2°55.987 -999 55 15.6 101160 46
2011-07-26 06:33:57 51°13.644 2°55.981 -999 24 15.7 101160 46
2011-07-26 06:34:03 51°13.645 2°55.973 -999 79 15.7 101160 46
2011-07-26 06:34:08 51°13.646 2°55.967 -999 24 15.7 101160 46
2011-07-26 06:34:14 51°13.648 2°55.959 -999 55 15.7 101160 46
2011-07-26 06:34:19 51°13.649 2°55.952 -999 24 15.7 101160 44
2011-07-26 06:34:24 51°13.65 2°55.946 -999 79 15.7 101160 44
2011-07-26 06:34:28 51°13.651 2°55.941 -999 24 15.6 101160 45
2011-07-26 06:34:34 51°13.651 2°55.934 -999 55 15.6 101160 45
2011-07-26 06:34:39 51°13.652 2°55.928 -999 24 15.6 101160 45
2011-07-26 06:34:44 51°13.653 2°55.922 -999 55 15.6 101160 45
2011-07-26 06:34:48 51°13.654 2°55.917 -999 24 15.6 101160 45
2011-07-26 06:34:54 51°13.656 2°55.91 -999 55 15.6 101160 45
2011-07-26 06:34:59 51°13.657 2°55.903 -999 24 15.6 101160 46
2011-07-26 06:35:04 51°13.659 2°55.897 -999 55 15.6 101160 46
2011-07-26 06:35:09 51°13.66 2°55.891 -999 24 15.6 101160 45
2011-07-26 06:35:15 51°13.662 2°55.884 -999 55 15.6 101160 45
2011-07-26 06:35:20 51°13.664 2°55.878 -999 24 15.6 101160 45
2011-07-26 06:35:24 51°13.665 2°55.874 -999 55 15.6 101160 45
2011-07-26 06:35:29 51°13.668 2°55.868 -999 24 15.5 101160 45
2011-07-26 06:35:34 51°13.67 2°55.862 -999 55 15.5 101160 45
2011-07-26 06:35:39 51°13.672 2°55.856 -999 24 15.5 101160 45
2011-07-26 06:35:44 51°13.674 2°55.85 -999 55 15.5 101160 45
2011-07-26 06:35:49 51°13.677 2°55.844 -999 24 15.5 101160 45
2011-07-26 06:35:54 51°13.679 2°55.838 -999 55 15.5 101160 45
2011-07-26 06:35:59 51°13.682 2°55.832 -999 24 15.5 101160 45
2011-07-26 06:36:04 51°13.686 2°55.826 6.7 53 15.5 101160 45
2011-07-26 06:36:09 51°13.689 2°55.82 6.7 21 15.5 101160 46
2011-07-26 06:36:14 51°13.693 2°55.813 3.6 82 15.5 101160 46
2011-07-26 06:36:19 51°13.696 2°55.807 4.9 23 15.5 101160 46
2011-07-26 06:36:25 51°13.701 2°55.799 5.7 53 15.5 101160 46
2011-07-26 06:36:30 51°13.705 2°55.793 5.2 26 15.5 101160 46
2011-07-26 06:36:34 51°13.708 2°55.787 6 53 15.5 101160 46
2011-07-26 06:36:39 51°13.712 2°55.781 4.5 23 15.6 101170 45
2011-07-26 06:36:44 51°13.716 2°55.774 4.5 81 15.6 101170 45
2011-07-26 06:36:49 51°13.721 2°55.767 4.3 20 15.6 101160 47
2011-07-26 06:36:54 51°13.725 2°55.76 6.7 58 15.6 101160 47
2011-07-26 06:36:59 51°13.729 2°55.754 6.3 21 15.7 101160 44
2011-07-26 06:37:04 51°13.734 2°55.747 5.6 53 15.7 101160 44
2011-07-26 06:37:09 51°13.738 2°55.74 3.7 21 15.7 101160 46
2011-07-26 06:37:14 51°13.742 2°55.734 2.9 59 15.7 101160 46
2011-07-26 06:37:19 51°13.745 2°55.727 4.7 26 15.7 101160 45
2011-07-26 06:37:24 51°13.749 2°55.721 5.4 52 15.7 101160 45
2011-07-26 06:37:29 51°13.752 2°55.715 6.7 20 15.7 101170 47
2011-07-26 06:37:34 51°13.756 2°55.709 3.9 59 15.7 101170 47
2011-07-26 06:37:39 51°13.759 2°55.703 5.1 23 15.7 101160 46
2011-07-26 06:37:44 51°13.762 2°55.698 3 54 15.7 101160 46
2011-07-26 06:37:49 51°13.765 2°55.692 2.7 22 15.7 101170 45
2011-07-26 06:37:54 51°13.769 2°55.687 4.6 56 15.7 101170 45
2011-07-26 06:37:59 51°13.773 2°55.682 2.5 20 15.7 101160 47
2011-07-26 06:38:04 51°13.777 2°55.677 4.2 52 15.7 101160 47
2011-07-26 06:38:09 51°13.782 2°55.673 3.3 20 15.8 101160 45
2011-07-26 06:38:14 51°13.787 2°55.668 5.5 52 15.8 101160 45
2011-07-26 06:38:19 51°13.792 2°55.664 4.9 27 15.8 101160 46
2011-07-26 06:38:24 51°13.797 2°55.661 5.3 58 15.8 101160 46
2011-07-26 06:38:29 51°13.802 2°55.658 4.8 26 15.8 101160 46
2011-07-26 06:38:34 51°13.808 2°55.655 4.7 51 15.8 101160 46
2011-07-26 06:38:39 51°13.814 2°55.652 5 21 15.8 101150 46
2011-07-26 06:38:44 51°13.82 2°55.65 6 83 15.8 101150 46
2011-07-26 06:38:49 51°13.825 2°55.648 6.1 26 15.8 101150 44
2011-07-26 06:38:54 51°13.831 2°55.646 6.2 58 15.8 101150 44
2011-07-26 06:38:59 51°13.837 2°55.644 8.7 28 15.8 101150 46
2011-07-26 06:39:04 51°13.842 2°55.643 6.5 51 15.8 101150 46
2011-07-26 06:39:09 51°13.848 2°55.641 6 27 15.8 101150 46
2011-07-26 06:39:14 51°13.854 2°55.64 5.7 57 15.8 101150 46
2011-07-26 06:39:19 51°13.859 2°55.639 8.4 26 15.8 101150 45
2011-07-26 06:39:24 51°13.865 2°55.638 7.8 57 15.8 101150 45
2011-07-26 06:39:29 51°13.871 2°55.636 8.5 28 15.8 101150 46
2011-07-26 06:39:34 51°13.876 2°55.635 6.8 54 15.8 101150 46
2011-07-26 06:39:39 51°13.882 2°55.634 6.2 22 15.7 101160 43
2011-07-26 06:39:44 51°13.887 2°55.634 6.8 56 15.7 101160 43
2011-07-26 06:39:49 51°13.892 2°55.633 8.5 24 15.7 101160 45
2011-07-26 06:39:54 51°13.898 2°55.633 8.6 57 15.7 101160 45
2011-07-26 06:39:59 51°13.903 2°55.633 8.3 24 15.7 101150 44
2011-07-26 06:40:04 51°13.908 2°55.634 8.5 52 15.7 101150 44
2011-07-26 06:40:09 51°13.912 2°55.635 6.7 21 15.7 101150 46
2011-07-26 06:40:14 51°13.917 2°55.636 8.4 44 15.7 101150 46
2011-07-26 06:40:19 51°13.921 2°55.637 7.9 40 15.7 101150 45
2011-07-26 06:40:25 51°13.925 2°55.639 7.2 41 15.7 101150 45
2011-07-26 06:40:30 51°13.929 2°55.64 5.8 39 15.7 101150 45
2011-07-26 06:40:34 51°13.932 2°55.642 8 38 15.7 101150 45
2011-07-26 06:40:39 51°13.935 2°55.643 6.9 35 15.6 101150 44
2011-07-26 06:40:44 51°13.939 2°55.645 6.6 39 15.6 101150 44
2011-07-26 06:40:49 51°13.942 2°55.647 6 40 15.6 101150 46
2011-07-26 06:40:54 51°13.945 2°55.649 5.3 36 15.6 101150 46
2011-07-26 06:40:59 51°13.947 2°55.65 5 37 15.6 101150 46
2011-07-26 06:41:04 51°13.949 2°55.651 5.3 34 15.6 101150 46
2011-07-26 06:41:09 51°13.95 2°55.652 6.2 37 15.6 101150 45
2011-07-26 06:41:14 51°13.95 2°55.652 5.4 33 15.6 101150 45
2011-07-26 06:41:19 51°13.95 2°55.652 6.4 33 15.6 101150 45
2011-07-26 06:41:24 51°13.949 2°55.651 5.9 30 15.6 101150 45
2011-07-26 06:41:29 51°13.948 2°55.649 6 25 15.6 101150 47
2011-07-26 06:41:34 51°13.946 2°55.647 6.5 22 15.6 101150 47
2011-07-26 06:41:39 51°13.944 2°55.644 6.4 16 15.6 101150 46
2011-07-26 06:41:44 51°13.942 2°55.641 5.9 15 15.6 101150 46
2011-07-26 06:41:49 51°13.941 2°55.637 6 14 15.6 101150 45
2011-07-26 06:41:54 51°13.939 2°55.633 6.9 8 15.6 101150 45
2011-07-26 06:41:59 51°13.938 2°55.63 5 8 15.6 101150 46
2011-07-26 06:42:04 51°13.937 2°55.627 4.6 9 15.6 101150 46
2011-07-26 06:42:09 51°13.936 2°55.626 5.2 10 15.6 101150 45
2011-07-26 06:42:14 51°13.936 2°55.624 3.9 2 15.6 101150 45
2011-07-26 06:42:19 51°13.935 2°55.624 5.3 358 15.5 101150 43
2011-07-26 06:42:23 51°13.935 2°55.625 4.3 7 15.5 101150 43
2011-07-26 06:42:29 51°13.934 2°55.627 4.7 10 15.5 101150 45
2011-07-26 06:42:34 51°13.934 2°55.63 4.3 7 15.5 101150 45
2011-07-26 06:42:39 51°13.933 2°55.633 4.9 7 15.6 101150 46
2011-07-26 06:42:44 51°13.933 2°55.637 4.4 6 15.6 101150 46
2011-07-26 06:42:49 51°13.933 2°55.64 4.8 5 15.6 101150 45
2011-07-26 06:42:54 51°13.932 2°55.641 4.7 5 15.6 101150 45
2011-07-26 06:42:59 51°13.932 2°55.64 4.9 1 15.6 101150 47
2011-07-26 06:43:04 51°13.931 2°55.637 5.7 358 15.6 101150 47
2011-07-26 06:43:09 51°13.931 2°55.632 6.4 351 15.6 101150 45
2011-07-26 06:43:14 51°13.931 2°55.626 7.7 349 15.6 101150 45
2011-07-26 06:43:19 51°13.933 2°55.619 8.3 346 15.6 101150 46
2011-07-26 06:43:24 51°13.934 2°55.613 7.8 343 15.6 101150 46
2011-07-26 06:43:29 51°13.936 2°55.607 7.9 340 15.6 101150 46
2011-07-26 06:43:34 51°13.938 2°55.601 7.6 337 15.6 101150 46
2011-07-26 06:43:39 51°13.941 2°55.595 8.1 331 15.5 101150 45
2011-07-26 06:43:43 51°13.944 2°55.591 8.7 331 15.5 101150 45
2011-07-26 06:43:48 51°13.948 2°55.585 9.2 331 15.5 101150 45
2011-07-26 06:43:54 51°13.954 2°55.578 9.2 278 15.5 101150 45
2011-07-26 06:43:59 51°13.96 2°55.573 8.2 330 15.5 101150 45
2011-07-26 06:44:03 51°13.964 2°55.569 8.9 330 15.5 101150 45
2011-07-26 06:44:08 51°13.97 2°55.563 9.7 329 15.5 101150 46
2011-07-26 06:44:13 51°13.977 2°55.558 7.7 330 15.5 101150 46
2011-07-26 06:44:18 51°13.983 2°55.552 7.9 330 15.5 101150 46
2011-07-26 06:44:23 51°13.99 2°55.546 8.2 330 15.5 101150 46
2011-07-26 06:44:27 51°13.996 2°55.541 9.7 329 15.4 101150 45
2011-07-26 06:44:32 51°14.003 2°55.534 10.5 279 15.4 101150 45
2011-07-26 06:44:37 51°14.011 2°55.528 7.7 331 15.5 101140 45
2011-07-26 06:44:42 51°14.019 2°55.521 9.6 331 15.5 101140 45
2011-07-26 06:44:47 51°14.027 2°55.514 8.3 330 15.4 101150 46
2011-07-26 06:44:51 51°14.033 2°55.508 8.3 328 15.4 101150 46
2011-07-26 06:44:56 51°14.042 2°55.5 8.7 328 15.4 101140 44
2011-07-26 06:45:01 51°14.051 2°55.493 9.8 329 15.4 101140 44
2011-07-26 06:45:06 51°14.06 2°55.486 9.7 330 15.4 101140 45
2011-07-26 06:45:11 51°14.069 2°55.477 9.5 329 15.4 101140 45
2011-07-26 06:45:15 51°14.077 2°55.47 9.3 330 15.5 101150 45
2011-07-26 06:45:21 51°14.088 2°55.46 9.9 331 15.5 101150 45
2011-07-26 06:45:26 51°14.099 2°55.452 8.1 330 15.5 101150 46
2011-07-26 06:45:31 51°14.109 2°55.443 10.7 331 15.5 101150 46
2011-07-26 06:45:35 51°14.117 2°55.435 10.8 329 15.4 101140 46
2011-07-26 06:45:40 51°14.127 2°55.426 11 327 15.4 101140 46
2011-07-26 06:45:45 51°14.137 2°55.417 12.4 329 15.5 101140 46
2011-07-26 06:45:50 51°14.147 2°55.408 9.1 330 15.5 101140 46
2011-07-26 06:45:56 51°14.16 2°55.397 9.4 331 15.5 101140 45
2011-07-26 06:46:01 51°14.17 2°55.387 10.4 283 15.5 101140 45
2011-07-26 06:46:05 51°14.178 2°55.379 9.3 332 15.5 101140 46
2011-07-26 06:46:11 51°14.192 2°55.368 10.7 330 15.5 101140 46
2011-07-26 06:46:16 51°14.202 2°55.359 10.9 331 15.5 101140 46
2011-07-26 06:46:20 51°14.211 2°55.351 9 330 15.5 101140 46
2011-07-26 06:46:25 51°14.222 2°55.341 9.8 330 15.5 101150 45
2011-07-26 06:46:31 51°14.234 2°55.329 9.3 280 15.5 101150 45
2011-07-26 06:46:36 51°14.245 2°55.319 11.8 328 15.5 101140 45
2011-07-26 06:46:40 51°14.254 2°55.311 5.5 328 15.5 101140 45
2011-07-26 06:46:46 51°14.267 2°55.3 12 327 15.5 101140 46
2011-07-26 06:46:51 51°14.278 2°55.29 10.5 278 15.5 101140 46
2011-07-26 06:46:56 51°14.289 2°55.28 9.8 328 15.5 101140 46
2011-07-26 06:47:01 51°14.3 2°55.271 8.9 328 15.5 101140 46
2011-07-26 06:47:07 51°14.313 2°55.26 10.5 327 15.5 101140 46
2011-07-26 06:47:13 51°14.326 2°55.248 11.5 328 15.5 101140 46
2011-07-26 06:47:19 51°14.339 2°55.235 10.4 329 15.4 101140 45
2011-07-26 06:47:24 51°14.349 2°55.224 10.5 329 15.4 101140 45
2011-07-26 06:47:29 51°14.36 2°55.213 12.1 328 15.4 101140 45
2011-07-26 06:47:34 51°14.371 2°55.201 10.5 328 15.4 101140 45
2011-07-26 06:47:39 51°14.382 2°55.189 9.5 329 15.4 101130 44
2011-07-26 06:47:44 51°14.392 2°55.177 11.3 330 15.4 101130 44
2011-07-26 06:47:49 51°14.403 2°55.165 8.3 330 15.4 101130 45
2011-07-26 06:47:54 51°14.414 2°55.152 10.5 330 15.4 101130 45
2011-07-26 06:47:59 51°14.425 2°55.14 10.2 331 15.4 101140 46
2011-07-26 06:48:04 51°14.436 2°55.128 10.3 329 15.4 101140 46
2011-07-26 06:48:09 51°14.447 2°55.115 5.2 330 15.4 101140 46
2011-07-26 06:48:14 51°14.459 2°55.104 9.1 330 15.4 101140 46
2011-07-26 06:48:18 51°14.468 2°55.094 11.2 332 15.4 101130 46
2011-07-26 06:48:23 51°14.48 2°55.08 11.9 331 15.4 101130 46
2011-07-26 06:48:29 51°14.493 2°55.065 9.5 332 15.4 101150 46
2011-07-26 06:48:34 51°14.505 2°55.052 9.2 331 15.4 101150 46
2011-07-26 06:48:39 51°14.518 2°55.039 10.5 333 15.4 101150 46
2011-07-26 06:48:44 51°14.531 2°55.028 8.9 332 15.4 101150 46
2011-07-26 06:48:49 51°14.544 2°55.016 9.4 334 15.5 101160 46
2011-07-26 06:48:54 51°14.558 2°55.006 9.1 333 15.5 101160 46
2011-07-26 06:48:59 51°14.572 2°54.995 11.4 333 15.5 101140 46
2011-07-26 06:49:04 51°14.585 2°54.983 9.8 333 15.5 101140 46
2011-07-26 06:49:09 51°14.598 2°54.971 12.8 333 15.5 101150 46
2011-07-26 06:49:14 51°14.611 2°54.958 11.8 334 15.5 101150 46
2011-07-26 06:49:19 51°14.624 2°54.945 10.2 334 15.5 101150 46
2011-07-26 06:49:24 51°14.637 2°54.933 11.1 337 15.5 101150 46
2011-07-26 06:49:29 51°14.651 2°54.92 8.8 337 15.5 101160 46
2011-07-26 06:49:34 51°14.664 2°54.906 11.7 333 15.5 101160 46
2011-07-26 06:49:39 51°14.677 2°54.893 11.5 335 15.5 101150 45
2011-07-26 06:49:43 51°14.687 2°54.882 11.5 334 15.5 101150 45
2011-07-26 06:49:48 51°14.7 2°54.869 10.1 335 15.5 101140 46
2011-07-26 06:49:53 51°14.713 2°54.856 10.6 332 15.5 101140 46
2011-07-26 06:49:58 51°14.726 2°54.843 11 332 15.5 101140 45
2011-07-26 06:50:03 51°14.739 2°54.83 11.6 332 15.5 101140 45
2011-07-26 06:50:08 51°14.752 2°54.816 11 332 15.5 101150 45
2011-07-26 06:50:13 51°14.764 2°54.802 11.7 332 15.5 101150 45
2011-07-26 06:50:18 51°14.777 2°54.788 10.2 331 15.5 101150 45
2011-07-26 06:50:23 51°14.789 2°54.774 10.6 332 15.5 101150 45
2011-07-26 06:50:28 51°14.802 2°54.759 11.6 332 15.5 101140 45
2011-07-26 06:50:33 51°14.814 2°54.744 10.1 335 15.5 101140 45
2011-07-26 06:50:38 51°14.826 2°54.729 13.1 335 15.5 101150 46
2011-07-26 06:50:43 51°14.839 2°54.713 9.8 334 15.5 101150 46
2011-07-26 06:50:47 51°14.85 2°54.701 11.6 334 15.4 101150 46
2011-07-26 06:50:52 51°14.863 2°54.685 9.7 333 15.4 101150 46
2011-07-26 06:50:57 51°14.876 2°54.669 11.5 332 15.4 101160 45
2011-07-26 06:51:02 51°14.889 2°54.653 10.7 332 15.4 101160 45
2011-07-26 06:51:08 51°14.905 2°54.633 14.3 333 15.4 101150 45
2011-07-26 06:51:13 51°14.919 2°54.617 14.6 334 15.4 101150 45
2011-07-26 06:51:19 51°14.936 2°54.6 10.5 332 15.4 101140 45
2011-07-26 06:51:24 51°14.95 2°54.585 13.6 334 15.4 101140 45
2011-07-26 06:51:28 51°14.961 2°54.573 13.7 333 15.4 101150 46
2011-07-26 06:51:33 51°14.975 2°54.559 11.3 334 15.4 101150 46
2011-07-26 06:51:38 51°14.989 2°54.543 10.6 333 15.4 101150 45
2011-07-26 06:51:43 51°15.002 2°54.527 13.4 333 15.4 101150 45
2011-07-26 06:51:48 51°15.016 2°54.512 6.1 333 15.5 101140 45
2011-07-26 06:51:53 51°15.029 2°54.496 11.7 332 15.5 101140 45
2011-07-26 06:51:58 51°15.043 2°54.481 13.5 331 15.5 101150 46
2011-07-26 06:52:03 51°15.057 2°54.466 10.7 331 15.5 101150 46
2011-07-26 06:52:08 51°15.07 2°54.45 5.5 332 15.4 101140 45
2011-07-26 06:52:13 51°15.084 2°54.434 12.3 332 15.4 101140 45
2011-07-26 06:52:17 51°15.095 2°54.422 10.9 332 15.4 101150 45
2011-07-26 06:52:22 51°15.109 2°54.407 12.3 332 15.4 101150 45
2011-07-26 06:52:28 51°15.126 2°54.389 13.3 331 15.4 101150 45
2011-07-26 06:52:33 51°15.14 2°54.374 12.9 331 15.4 101150 45
2011-07-26 06:52:37 51°15.152 2°54.362 10.5 332 15.5 101150 46
2011-07-26 06:52:42 51°15.166 2°54.348 5.3 334 15.5 101150 46
2011-07-26 06:52:46 51°15.177 2°54.335 6.5 331 15.5 101160 47
2011-07-26 06:52:52 51°15.194 2°54.316 12.8 335 15.5 101160 47
2011-07-26 06:52:57 51°15.207 2°54.3 5.8 333 15.6 101150 44
2011-07-26 06:53:01 51°15.218 2°54.286 11.7 334 15.6 101150 44
2011-07-26 06:53:06 51°15.231 2°54.269 5 334 15.6 101140 46
2011-07-26 06:53:11 51°15.243 2°54.251 12 335 15.6 101140 46
2011-07-26 06:53:16 51°15.256 2°54.233 11.3 335 15.6 101140 46
2011-07-26 06:53:21 51°15.268 2°54.215 2.6 336 15.6 101140 46
2011-07-26 06:53:25 51°15.278 2°54.201 12 337 15.5 101150 46
2011-07-26 06:53:31 51°15.293 2°54.179 12.5 338 15.5 101150 46
2011-07-26 06:53:36 51°15.306 2°54.161 13.2 336 15.5 101140 46
2011-07-26 06:53:41 51°15.318 2°54.144 10 337 15.5 101140 46
2011-07-26 06:53:45 51°15.328 2°54.13 4.4 337 15.5 101150 46
2011-07-26 06:53:51 51°15.344 2°54.109 12.8 336 15.5 101150 46
2011-07-26 06:53:56 51°15.357 2°54.093 12.5 335 15.6 101160 46
2011-07-26 06:54:01 51°15.371 2°54.076 10.4 335 15.6 101160 46
2011-07-26 06:54:06 51°15.384 2°54.06 12.5 334 15.5 101140 46
2011-07-26 06:54:11 51°15.398 2°54.043 12 332 15.5 101140 46
2011-07-26 06:54:16 51°15.412 2°54.028 12.9 332 15.5 101140 46
2011-07-26 06:54:21 51°15.425 2°54.011 11.5 330 15.5 101140 46
2011-07-26 06:54:26 51°15.438 2°53.993 5.7 331 15.5 101140 46
2011-07-26 06:54:31 51°15.451 2°53.976 12.2 333 15.5 101140 46
2011-07-26 06:54:36 51°15.463 2°53.958 12.3 332 15.6 101150 47
2011-07-26 06:54:41 51°15.475 2°53.94 13.6 334 15.6 101150 47
2011-07-26 06:54:46 51°15.487 2°53.921 10.5 333 15.6 101150 46
2011-07-26 06:54:51 51°15.499 2°53.902 10.9 335 15.6 101150 46
2011-07-26 06:54:56 51°15.511 2°53.883 13.3 335 15.6 101150 46
2011-07-26 06:55:01 51°15.523 2°53.864 12.2 334 15.6 101150 46
2011-07-26 06:55:05 51°15.532 2°53.848 11.5 332 15.6 101150 46
2011-07-26 06:55:11 51°15.546 2°53.826 11.8 331 15.6 101150 46
2011-07-26 06:55:16 51°15.558 2°53.807 12.5 334 15.5 101150 46
2011-07-26 06:55:21 51°15.57 2°53.788 6 336 15.5 101150 46
2011-07-26 06:55:25 51°15.58 2°53.774 6.2 335 15.6 101150 45
2011-07-26 06:55:31 51°15.594 2°53.752 12 336 15.6 101150 45
2011-07-26 06:55:36 51°15.606 2°53.734 11.7 336 15.6 101150 45
2011-07-26 06:55:41 51°15.619 2°53.717 12.9 336 15.6 101150 45
2011-07-26 06:55:45 51°15.629 2°53.703 12.8 337 15.5 101140 45
2011-07-26 06:55:51 51°15.644 2°53.682 11.7 335 15.5 101140 45
2011-07-26 06:55:56 51°15.656 2°53.665 10.9 336 15.5 101150 46
2011-07-26 06:56:01 51°15.669 2°53.648 12.3 335 15.5 101150 46
2011-07-26 06:56:06 51°15.682 2°53.631 13.5 336 15.5 101150 46
2011-07-26 06:56:11 51°15.695 2°53.615 5.4 335 15.5 101150 46
2011-07-26 06:56:16 51°15.708 2°53.598 12.4 335 15.5 101140 46
2011-07-26 06:56:21 51°15.722 2°53.582 11.9 333 15.5 101140 46
2011-07-26 06:56:26 51°15.735 2°53.565 11.4 335 15.5 101140 45
2011-07-26 06:56:31 51°15.749 2°53.549 11.4 334 15.5 101140 45
2011-07-26 06:56:36 51°15.762 2°53.532 11.9 334 15.5 101140 45
2011-07-26 06:56:41 51°15.775 2°53.515 10.8 336 15.5 101140 45
2011-07-26 06:56:46 51°15.788 2°53.497 5.6 336 15.5 101150 45
2011-07-26 06:56:51 51°15.801 2°53.479 11.5 335 15.5 101150 45
2011-07-26 06:56:56 51°15.813 2°53.462 10.1 336 15.5 101150 46
2011-07-26 06:57:01 51°15.826 2°53.444 5.8 335 15.5 101150 46
2011-07-26 06:57:06 51°15.838 2°53.426 11.5 334 15.5 101160 46
2011-07-26 06:57:11 51°15.851 2°53.41 14 334 15.5 101160 46
2011-07-26 06:57:16 51°15.864 2°53.394 13.7 333 15.5 101150 46
2011-07-26 06:57:21 51°15.878 2°53.378 14.7 333 15.5 101150 46
2011-07-26 06:57:25 51°15.889 2°53.366 14.3 334 15.5 101150 46
2011-07-26 06:57:31 51°15.906 2°53.347 5.9 334 15.5 101150 46
2011-07-26 06:57:36 51°15.919 2°53.332 6.5 333 15.5 101140 46
2011-07-26 06:57:41 51°15.933 2°53.317 11.6 333 15.5 101140 46
2011-07-26 06:57:45 51°15.945 2°53.306 12.3 331 15.4 101150 45
2011-07-26 06:57:51 51°15.962 2°53.291 12.7 331 15.4 101150 45
2011-07-26 06:57:56 51°15.977 2°53.278 10.5 329 15.4 101140 46
2011-07-26 06:58:01 51°15.992 2°53.267 10 330 15.4 101140 46
2011-07-26 06:58:06 51°16.007 2°53.256 11.2 332 15.4 101160 46
2011-07-26 06:58:11 51°16.023 2°53.245 13.2 329 15.4 101160 46
2011-07-26 06:58:16 51°16.039 2°53.235 13.4 330 15.5 101150 44
2011-07-26 06:58:21 51°16.055 2°53.226 13.6 329 15.5 101150 44
2011-07-26 06:58:26 51°16.071 2°53.217 5.9 330 15.5 101150 47
2011-07-26 06:58:31 51°16.087 2°53.209 10.6 329 15.5 101150 47
2011-07-26 06:58:36 51°16.104 2°53.2 12 329 15.5 101150 47
2011-07-26 06:58:41 51°16.12 2°53.192 11.9 331 15.5 101150 47
2011-07-26 06:58:46 51°16.136 2°53.184 10.1 332 15.5 101150 46
2011-07-26 06:58:51 51°16.152 2°53.176 4.7 332 15.5 101150 46
2011-07-26 06:58:56 51°16.168 2°53.167 11.5 331 15.5 101140 45
2011-07-26 06:59:01 51°16.184 2°53.158 17.2 330 15.5 101140 45
2011-07-26 06:59:06 51°16.199 2°53.148 13.4 331 15.5 101140 47
2011-07-26 06:59:11 51°16.214 2°53.138 12.5 330 15.5 101140 47
2011-07-26 06:59:16 51°16.23 2°53.128 10.9 329 15.5 101150 46
2011-07-26 06:59:21 51°16.245 2°53.119 13.8 330 15.5 101150 46
2011-07-26 06:59:25 51°16.258 2°53.112 11.2 329 15.5 101150 46
2011-07-26 06:59:31 51°16.277 2°53.1 14.4 330 15.5 101150 46
2011-07-26 06:59:36 51°16.293 2°53.091 12.3 329 15.5 101150 46
2011-07-26 06:59:41 51°16.309 2°53.081 11.9 329 15.5 101150 46
2011-07-26 06:59:45 51°16.321 2°53.073 7 332 15.4 101150 46
2011-07-26 06:59:51 51°16.341 2°53.061 13.6 331 15.4 101150 46
2011-07-26 06:59:56 51°16.356 2°53.051 14 331 15.4 101160 46
2011-07-26 07:00:01 51°16.372 2°53.041 14 332 15.4 101160 46
2011-07-26 07:00:06 51°16.388 2°53.031 12.8 332 15.5 101150 46
2011-07-26 07:00:11 51°16.404 2°53.021 3.4 332 15.5 101150 46
2011-07-26 07:00:16 51°16.419 2°53.01 11.6 332 15.5 101150 46
2011-07-26 07:00:21 51°16.435 2°52.999 11.9 332 15.5 101150 46
2011-07-26 07:00:26 51°16.45 2°52.988 10.7 333 15.5 101140 46
2011-07-26 07:00:31 51°16.465 2°52.977 5.7 334 15.5 101140 46
2011-07-26 07:00:36 51°16.48 2°52.965 6.4 333 15.4 101150 46
2011-07-26 07:00:41 51°16.495 2°52.953 13 334 15.4 101150 46
2011-07-26 07:00:46 51°16.51 2°52.94 10.7 334 15.4 101140 46
2011-07-26 07:00:51 51°16.525 2°52.929 12.2 332 15.4 101140 46
2011-07-26 07:00:56 51°16.54 2°52.916 6.8 334 15.4 101150 45
2011-07-26 07:01:01 51°16.556 2°52.904 2.9 333 15.4 101150 45
2011-07-26 07:01:06 51°16.571 2°52.893 13.2 332 15.5 101140 47
2011-07-26 07:01:11 51°16.586 2°52.881 6.7 333 15.5 101140 47
2011-07-26 07:01:16 51°16.601 2°52.871 12.6 332 15.5 101140 47
2011-07-26 07:01:21 51°16.617 2°52.861 12.2 331 15.5 101140 47
2011-07-26 07:01:26 51°16.632 2°52.851 14.2 332 15.5 101140 46
2011-07-26 07:01:31 51°16.648 2°52.842 10.6 332 15.5 101140 46
2011-07-26 07:01:36 51°16.664 2°52.833 12.2 332 15.5 101150 46
2011-07-26 07:01:41 51°16.68 2°52.824 6.3 331 15.5 101150 46
2011-07-26 07:01:46 51°16.696 2°52.815 11.4 331 15.5 101140 46
2011-07-26 07:01:51 51°16.712 2°52.806 12.6 331 15.5 101140 46
2011-07-26 07:01:56 51°16.728 2°52.797 11.5 331 15.5 101150 47
2011-07-26 07:02:01 51°16.744 2°52.79 13.3 329 15.5 101150 47
2011-07-26 07:02:06 51°16.761 2°52.782 12.6 329 15.5 101150 47
2011-07-26 07:02:11 51°16.776 2°52.773 15.7 329 15.5 101150 47
2011-07-26 07:02:16 51°16.792 2°52.765 14.4 329 15.5 101140 47
2011-07-26 07:02:21 51°16.809 2°52.757 13.5 330 15.5 101140 47
2011-07-26 07:02:26 51°16.824 2°52.749 11.5 332 15.4 101140 46
2011-07-26 07:02:31 51°16.841 2°52.741 13.6 332 15.4 101140 46
2011-07-26 07:02:36 51°16.857 2°52.732 14.5 332 15.4 101140 46
2011-07-26 07:02:41 51°16.873 2°52.724 6.3 331 15.4 101140 46
2011-07-26 07:02:46 51°16.889 2°52.716 14.5 331 15.5 101130 46
2011-07-26 07:02:51 51°16.905 2°52.707 13.2 331 15.5 101130 46
2011-07-26 07:02:56 51°16.921 2°52.698 5.9 331 15.5 101150 46
2011-07-26 07:03:01 51°16.936 2°52.691 15.5 332 15.5 101150 46
2011-07-26 07:03:06 51°16.952 2°52.682 15 331 15.4 101150 46
2011-07-26 07:03:11 51°16.968 2°52.673 12.8 330 15.4 101150 46
2011-07-26 07:03:16 51°16.984 2°52.664 11.6 330 15.4 101160 46
2011-07-26 07:03:21 51°17 2°52.656 6.3 329 15.4 101160 46
2011-07-26 07:03:26 51°17.016 2°52.649 15 328 15.4 101150 47
2011-07-26 07:03:31 51°17.033 2°52.642 13.3 329 15.4 101150 47
2011-07-26 07:03:36 51°17.049 2°52.635 13.2 329 15.4 101150 44
2011-07-26 07:03:41 51°17.065 2°52.63 10.2 328 15.4 101150 44
2011-07-26 07:03:45 51°17.079 2°52.626 10.1 327 15.4 101160 46
2011-07-26 07:03:51 51°17.099 2°52.62 11.2 327 15.4 101160 46
2011-07-26 07:03:56 51°17.115 2°52.616 13.7 327 15.4 101150 46
2011-07-26 07:04:01 51°17.132 2°52.612 13.1 327 15.4 101150 46
2011-07-26 07:04:06 51°17.149 2°52.608 6.3 325 15.4 101150 46
2011-07-26 07:04:11 51°17.166 2°52.605 11.1 304 15.4 101150 46
2011-07-26 07:04:16 51°17.183 2°52.601 12.5 325 15.4 101130 47
2011-07-26 07:04:21 51°17.2 2°52.598 11.1 327 15.4 101130 47
2011-07-26 07:04:26 51°17.217 2°52.596 12.8 326 15.4 101150 47
2011-07-26 07:04:31 51°17.234 2°52.593 6.5 303 15.4 101150 47
2011-07-26 07:04:36 51°17.251 2°52.589 13.5 324 15.4 101140 46
2011-07-26 07:04:41 51°17.268 2°52.587 8.1 305 15.4 101140 46
2011-07-26 07:04:46 51°17.285 2°52.584 4.1 326 15.4 101140 47
2011-07-26 07:04:51 51°17.302 2°52.581 10.1 326 15.4 101140 47
2011-07-26 07:04:56 51°17.319 2°52.578 10.7 326 15.4 101150 46
2011-07-26 07:05:01 51°17.336 2°52.574 11.9 325 15.4 101150 46
2011-07-26 07:05:06 51°17.353 2°52.571 12.8 325 15.4 101140 46
2011-07-26 07:05:11 51°17.37 2°52.567 6.7 326 15.4 101140 46
2011-07-26 07:05:16 51°17.386 2°52.564 6.6 326 15.4 101150 46
2011-07-26 07:05:21 51°17.403 2°52.56 13.9 326 15.4 101150 46
2011-07-26 07:05:25 51°17.417 2°52.559 10.9 328 15.4 101140 47
2011-07-26 07:05:31 51°17.437 2°52.554 9.6 326 15.4 101140 47
2011-07-26 07:05:36 51°17.454 2°52.552 13.6 327 15.4 101140 47
2011-07-26 07:05:41 51°17.471 2°52.55 12.6 300 15.4 101140 47
2011-07-26 07:05:45 51°17.485 2°52.549 13.7 326 15.4 101140 46
2011-07-26 07:05:51 51°17.505 2°52.547 11.1 303 15.4 101140 46
2011-07-26 07:05:56 51°17.523 2°52.546 6.4 328 15.5 101150 47
2011-07-26 07:06:01 51°17.54 2°52.545 5.6 327 15.5 101150 47
2011-07-26 07:06:06 51°17.557 2°52.544 11.3 329 15.5 101160 46
2011-07-26 07:06:11 51°17.574 2°52.544 12.1 329 15.5 101160 46
2011-07-26 07:06:16 51°17.592 2°52.543 10 328 15.5 101140 46
2011-07-26 07:06:21 51°17.609 2°52.542 10.2 328 15.5 101140 46
2011-07-26 07:06:26 51°17.626 2°52.541 12.4 329 15.5 101140 47
2011-07-26 07:06:31 51°17.644 2°52.539 12.5 300 15.5 101140 47
2011-07-26 07:06:36 51°17.661 2°52.538 12.9 327 15.5 101140 47
2011-07-26 07:06:41 51°17.678 2°52.537 10.9 326 15.5 101140 47
2011-07-26 07:06:46 51°17.696 2°52.537 13.5 326 15.5 101160 47
2011-07-26 07:06:51 51°17.713 2°52.537 4.4 303 15.5 101160 47
2011-07-26 07:06:56 51°17.73 2°52.538 15 325 15.5 101150 47
2011-07-26 07:07:01 51°17.747 2°52.539 13.2 325 15.5 101150 47
2011-07-26 07:07:06 51°17.765 2°52.541 6.4 325 15.5 101150 47
2011-07-26 07:07:11 51°17.782 2°52.543 11.6 306 15.5 101150 47
2011-07-26 07:07:16 51°17.799 2°52.545 10.7 324 15.4 101150 46
2011-07-26 07:07:21 51°17.817 2°52.546 12.1 324 15.4 101150 46
2011-07-26 07:07:26 51°17.834 2°52.548 12.7 323 15.4 101150 47
2011-07-26 07:07:31 51°17.852 2°52.548 11.6 326 15.4 101150 47
2011-07-26 07:07:36 51°17.869 2°52.548 6 325 15.4 101150 47
2011-07-26 07:07:41 51°17.887 2°52.548 11.2 326 15.4 101150 47
2011-07-26 07:07:45 51°17.901 2°52.548 12.4 327 15.4 101140 47
2011-07-26 07:07:51 51°17.922 2°52.548 14.1 326 15.4 101140 47
2011-07-26 07:07:56 51°17.938 2°52.546 15.1 326 15.4 101150 47
2011-07-26 07:08:01 51°17.955 2°52.546 10.8 325 15.4 101150 47
2011-07-26 07:08:06 51°17.973 2°52.544 10.9 326 15.4 101150 47
2011-07-26 07:08:11 51°17.99 2°52.544 6.1 301 15.4 101150 47
2011-07-26 07:08:16 51°18.007 2°52.544 14 326 15.4 101150 46
2011-07-26 07:08:21 51°18.024 2°52.543 12.8 325 15.4 101150 46
2011-07-26 07:08:25 51°18.037 2°52.544 10.1 323 15.4 101140 46
2011-07-26 07:08:31 51°18.057 2°52.545 6.5 305 15.4 101140 46
2011-07-26 07:08:36 51°18.075 2°52.546 12.1 323 15.4 101150 47
2011-07-26 07:08:41 51°18.092 2°52.548 9.6 305 15.4 101150 47
2011-07-26 07:08:45 51°18.105 2°52.55 13.3 324 15.4 101160 47
2011-07-26 07:08:51 51°18.126 2°52.552 13.9 305 15.4 101160 47
2011-07-26 07:08:56 51°18.143 2°52.553 10.6 326 15.4 101150 45
2011-07-26 07:09:01 51°18.16 2°52.555 11.5 306 15.4 101150 45
2011-07-26 07:09:05 51°18.173 2°52.556 12.8 324 15.4 101140 47
2011-07-26 07:09:11 51°18.194 2°52.558 10.3 303 15.4 101140 47
2011-07-26 07:09:16 51°18.211 2°52.559 10.7 325 15.4 101150 46
2011-07-26 07:09:21 51°18.228 2°52.561 11.1 305 15.4 101150 46
2011-07-26 07:09:25 51°18.242 2°52.561 11 325 15.4 101150 46
2011-07-26 07:09:31 51°18.262 2°52.563 11.7 303 15.4 101150 46
2011-07-26 07:09:36 51°18.279 2°52.563 9.4 324 15.4 101150 47
2011-07-26 07:09:41 51°18.296 2°52.565 10.9 325 15.4 101150 47
2011-07-26 07:09:45 51°18.31 2°52.565 11.1 327 15.4 101140 47
2011-07-26 07:09:51 51°18.331 2°52.567 12.7 303 15.4 101140 47
2011-07-26 07:09:56 51°18.348 2°52.568 10 323 15.5 101160 48
2011-07-26 07:10:01 51°18.365 2°52.57 6.6 304 15.5 101160 48
2011-07-26 07:10:06 51°18.382 2°52.571 13.6 323 15.4 101150 47
2011-07-26 07:10:11 51°18.399 2°52.572 5.8 303 15.4 101150 47
2011-07-26 07:10:16 51°18.417 2°52.573 6.2 325 15.5 101150 47
2011-07-26 07:10:21 51°18.434 2°52.573 10.4 303 15.5 101150 47
2011-07-26 07:10:26 51°18.451 2°52.573 12.6 325 15.5 101170 47
2011-07-26 07:10:31 51°18.468 2°52.572 11.9 302 15.5 101170 47
2011-07-26 07:10:36 51°18.485 2°52.572 12.1 327 15.4 101150 47
2011-07-26 07:10:41 51°18.502 2°52.571 12.6 326 15.4 101150 47
2011-07-26 07:10:46 51°18.519 2°52.571 11.4 325 15.4 101150 47
2011-07-26 07:10:51 51°18.537 2°52.571 13.2 327 15.4 101150 47
2011-07-26 07:10:56 51°18.554 2°52.57 12.1 326 15.4 101160 47
2011-07-26 07:11:01 51°18.571 2°52.569 13.9 326 15.4 101160 47
2011-07-26 07:11:06 51°18.588 2°52.568 14 326 15.5 101150 48
2011-07-26 07:11:11 51°18.605 2°52.567 9.9 303 15.5 101150 48
2011-07-26 07:11:16 51°18.622 2°52.567 12.2 325 15.4 101150 47
2011-07-26 07:11:21 51°18.639 2°52.567 11.5 324 15.4 101150 47
2011-07-26 07:11:25 51°18.652 2°52.567 12.3 324 15.4 101160 46
2011-07-26 07:11:31 51°18.672 2°52.567 11 300 15.4 101160 46
2011-07-26 07:11:36 51°18.689 2°52.568 13.2 325 15.4 101160 45
2011-07-26 07:11:41 51°18.706 2°52.568 12.1 305 15.4 101160 45
2011-07-26 07:11:45 51°18.719 2°52.568 10.9 325 15.4 101160 47
2011-07-26 07:11:51 51°18.74 2°52.569 12 301 15.4 101160 47
2011-07-26 07:11:56 51°18.757 2°52.57 13.4 325 15.4 101150 46
2011-07-26 07:12:01 51°18.774 2°52.571 14.3 325 15.4 101150 46
2011-07-26 07:12:05 51°18.787 2°52.572 5.8 326 15.4 101160 46
2011-07-26 07:12:11 51°18.808 2°52.573 11.1 324 15.4 101160 46
2011-07-26 07:12:16 51°18.825 2°52.574 10.8 325 15.4 101160 47
2011-07-26 07:12:21 51°18.843 2°52.576 14.3 305 15.4 101160 47
2011-07-26 07:12:26 51°18.86 2°52.578 6.2 325 15.4 101150 47
2011-07-26 07:12:31 51°18.878 2°52.579 12.3 301 15.4 101150 47
2011-07-26 07:12:36 51°18.895 2°52.581 11.6 323 15.4 101150 47
2011-07-26 07:12:41 51°18.912 2°52.582 5.4 306 15.4 101150 47
2011-07-26 07:12:45 51°18.926 2°52.584 12.7 324 15.4 101160 47
2011-07-26 07:12:51 51°18.947 2°52.584 11.4 326 15.4 101160 47
2011-07-26 07:12:56 51°18.964 2°52.585 14.1 325 15.4 101150 47
2011-07-26 07:13:01 51°18.981 2°52.585 14.4 305 15.4 101150 47
2011-07-26 07:13:06 51°18.999 2°52.586 10.5 322 15.4 101140 48
2011-07-26 07:13:11 51°19.016 2°52.586 14 304 15.4 101140 48
2011-07-26 07:13:16 51°19.033 2°52.586 12.5 324 15.4 101150 46
2011-07-26 07:13:21 51°19.051 2°52.586 5.9 302 15.4 101150 46
2011-07-26 07:13:25 51°19.064 2°52.586 12.9 325 15.4 101160 47
2011-07-26 07:13:31 51°19.085 2°52.585 14 301 15.4 101160 47
2011-07-26 07:13:36 51°19.102 2°52.584 5.9 326 15.4 101150 47
2011-07-26 07:13:41 51°19.119 2°52.583 13.3 328 15.4 101150 47
2011-07-26 07:13:45 51°19.133 2°52.583 14.4 327 15.4 101160 46
2011-07-26 07:13:51 51°19.154 2°52.582 13.8 326 15.4 101160 46
2011-07-26 07:13:56 51°19.171 2°52.581 11.3 326 15.4 101150 47
2011-07-26 07:14:01 51°19.188 2°52.58 13 326 15.4 101150 47
2011-07-26 07:14:05 51°19.202 2°52.58 12.9 325 15.4 101160 47
2011-07-26 07:14:11 51°19.223 2°52.579 11 324 15.4 101160 47
2011-07-26 07:14:16 51°19.24 2°52.579 10.8 326 15.4 101150 46
2011-07-26 07:14:21 51°19.257 2°52.579 6.3 303 15.4 101150 46
2011-07-26 07:14:25 51°19.271 2°52.58 13.6 324 15.4 101150 47
2011-07-26 07:14:31 51°19.291 2°52.58 13.2 323 15.4 101150 47
2011-07-26 07:14:36 51°19.308 2°52.581 16 324 15.4 101150 47
2011-07-26 07:14:41 51°19.326 2°52.582 10.3 305 15.4 101150 47
2011-07-26 07:14:46 51°19.343 2°52.583 6.2 322 15.5 101160 47
2011-07-26 07:14:51 51°19.36 2°52.584 11.1 303 15.5 101160 47
2011-07-26 07:14:56 51°19.376 2°52.586 11.7 321 15.5 101150 47
2011-07-26 07:15:01 51°19.393 2°52.587 11.1 303 15.5 101150 47
2011-07-26 07:15:05 51°19.407 2°52.587 10.6 321 15.4 101140 47
2011-07-26 07:15:11 51°19.427 2°52.589 6.3 305 15.4 101140 47
2011-07-26 07:15:16 51°19.443 2°52.59 6.5 323 15.4 101160 47
2011-07-26 07:15:21 51°19.46 2°52.59 14.6 305 15.4 101160 47
2011-07-26 07:15:25 51°19.474 2°52.591 6.4 323 15.4 101150 47
2011-07-26 07:15:31 51°19.494 2°52.592 12.3 321 15.4 101150 47
2011-07-26 07:15:36 51°19.511 2°52.592 12.8 324 15.4 101140 47
2011-07-26 07:15:41 51°19.528 2°52.592 13.4 303 15.4 101140 47
2011-07-26 07:15:45 51°19.541 2°52.593 11 322 15.4 101170 48
2011-07-26 07:15:51 51°19.561 2°52.593 11.3 300 15.4 101170 48
2011-07-26 07:15:56 51°19.578 2°52.593 12.1 325 15.4 101140 47
2011-07-26 07:16:01 51°19.595 2°52.593 15.6 306 15.4 101140 47
2011-07-26 07:16:05 51°19.609 2°52.592 14.7 324 15.4 101140 48
2011-07-26 07:16:11 51°19.63 2°52.591 10.4 304 15.4 101140 48
2011-07-26 07:16:16 51°19.647 2°52.59 14 322 15.4 101150 48
2011-07-26 07:16:21 51°19.664 2°52.589 12 304 15.4 101150 48
2011-07-26 07:16:25 51°19.678 2°52.588 6 321 15.4 101150 47
2011-07-26 07:16:31 51°19.698 2°52.587 15.4 302 15.4 101150 47
2011-07-26 07:16:36 51°19.716 2°52.586 12.3 321 15.4 101150 47
2011-07-26 07:16:41 51°19.733 2°52.585 12.8 306 15.4 101150 47
2011-07-26 07:16:45 51°19.746 2°52.585 11.5 320 15.3 101140 47
2011-07-26 07:16:51 51°19.767 2°52.584 11.8 301 15.3 101140 47
2011-07-26 07:16:56 51°19.784 2°52.584 6.2 320 15.3 101160 45
2011-07-26 07:17:01 51°19.801 2°52.583 5.7 305 15.3 101160 45
2011-07-26 07:17:06 51°19.818 2°52.583 10.5 322 15.3 101150 47
2011-07-26 07:17:11 51°19.835 2°52.583 6.3 303 15.3 101150 47
2011-07-26 07:17:16 51°19.852 2°52.584 4.4 323 15.4 101140 47
2011-07-26 07:17:21 51°19.869 2°52.584 12.3 306 15.4 101140 47
2011-07-26 07:17:25 51°19.883 2°52.585 9.6 323 15.4 101140 48
2011-07-26 07:17:31 51°19.903 2°52.586 11 306 15.4 101140 48
2011-07-26 07:17:36 51°19.92 2°52.587 10.8 321 15.4 101160 48
2011-07-26 07:17:41 51°19.937 2°52.587 11.3 280 15.4 101160 48
2011-07-26 07:17:45 51°19.951 2°52.588 12.5 320 15.4 101150 47
2011-07-26 07:17:51 51°19.97 2°52.589 6.3 305 15.4 101150 47
2011-07-26 07:17:56 51°19.987 2°52.59 5.7 324 15.4 101170 48
2011-07-26 07:18:01 51°20.004 2°52.591 10.8 304 15.4 101170 48
2011-07-26 07:18:05 51°20.018 2°52.591 5.7 322 15.4 101140 47
2011-07-26 07:18:11 51°20.038 2°52.592 3.6 306 15.4 101140 47
2011-07-26 07:18:16 51°20.055 2°52.592 12.6 324 15.5 101160 47
2011-07-26 07:18:21 51°20.072 2°52.592 13.4 324 15.5 101160 47
2011-07-26 07:18:25 51°20.086 2°52.592 11.8 323 15.5 101170 47
2011-07-26 07:18:31 51°20.107 2°52.592 11.2 326 15.5 101170 47
2011-07-26 07:18:36 51°20.124 2°52.592 11.3 326 15.5 101150 47
2011-07-26 07:18:41 51°20.141 2°52.591 12.9 324 15.5 101150 47
2011-07-26 07:18:45 51°20.155 2°52.59 12.2 325 15.5 101140 48
2011-07-26 07:18:51 51°20.176 2°52.589 10.4 304 15.5 101140 48
2011-07-26 07:18:56 51°20.193 2°52.587 14.9 325 15.5 101150 48
2011-07-26 07:19:01 51°20.211 2°52.586 15.1 306 15.5 101150 48
2011-07-26 07:19:05 51°20.224 2°52.584 11.6 324 15.5 101150 47
2011-07-26 07:19:11 51°20.245 2°52.583 13.2 305 15.5 101150 47
2011-07-26 07:19:16 51°20.262 2°52.581 7.6 326 15.5 101150 48
2011-07-26 07:19:21 51°20.279 2°52.58 14.5 305 15.5 101150 48
2011-07-26 07:19:25 51°20.293 2°52.579 11.2 325 15.5 101160 47
2011-07-26 07:19:31 51°20.313 2°52.578 15.3 327 15.5 101160 47
2011-07-26 07:19:36 51°20.33 2°52.577 15.7 326 15.4 101150 46
2011-07-26 07:19:41 51°20.348 2°52.576 14.5 281 15.4 101150 46
2011-07-26 07:19:45 51°20.361 2°52.576 11.6 327 15.4 101150 47
2011-07-26 07:19:51 51°20.382 2°52.575 12.3 325 15.4 101150 47
2011-07-26 07:19:56 51°20.4 2°52.574 12.8 325 15.4 101150 47
2011-07-26 07:20:01 51°20.417 2°52.574 12.9 325 15.4 101150 47
2011-07-26 07:20:05 51°20.431 2°52.573 14.3 324 15.4 101160 47
2011-07-26 07:20:11 51°20.452 2°52.573 6.3 303 15.4 101160 47
2011-07-26 07:20:16 51°20.469 2°52.573 6.6 324 15.4 101160 47
2011-07-26 07:20:21 51°20.486 2°52.574 15 325 15.4 101160 47
2011-07-26 07:20:25 51°20.499 2°52.574 15.6 325 15.4 101160 47
2011-07-26 07:20:31 51°20.52 2°52.576 12.1 301 15.4 101160 47
2011-07-26 07:20:36 51°20.536 2°52.577 12.3 322 15.4 101150 46
2011-07-26 07:20:41 51°20.553 2°52.577 4.1 305 15.4 101150 46
2011-07-26 07:20:46 51°20.569 2°52.578 13.6 322 15.3 101160 47
2011-07-26 07:20:51 51°20.586 2°52.579 10.2 308 15.3 101160 47
2011-07-26 07:20:56 51°20.603 2°52.58 10.5 322 15.3 101150 47
2011-07-26 07:21:01 51°20.62 2°52.581 13.9 303 15.3 101150 47
2011-07-26 07:21:06 51°20.637 2°52.581 12.4 321 15.3 101150 47
2011-07-26 07:21:11 51°20.654 2°52.582 10.5 304 15.3 101150 47
2011-07-26 07:21:16 51°20.671 2°52.583 11.9 321 15.3 101150 47
2011-07-26 07:21:21 51°20.688 2°52.583 11.5 324 15.3 101150 47
2011-07-26 07:21:26 51°20.705 2°52.584 10.7 324 15.3 101160 47
2011-07-26 07:21:31 51°20.723 2°52.583 5.9 327 15.3 101160 47
2011-07-26 07:21:36 51°20.74 2°52.583 11.2 326 15.4 101140 48
2011-07-26 07:21:41 51°20.757 2°52.583 6.2 277 15.4 101140 48
2011-07-26 07:21:46 51°20.775 2°52.582 14.3 325 15.4 101160 48
2011-07-26 07:21:51 51°20.791 2°52.581 11.1 303 15.4 101160 48
2011-07-26 07:21:56 51°20.808 2°52.58 6 324 15.4 101160 48
2011-07-26 07:22:01 51°20.825 2°52.579 13.5 303 15.4 101160 48
2011-07-26 07:22:06 51°20.842 2°52.578 5.6 328 15.4 101150 48
2011-07-26 07:22:11 51°20.859 2°52.577 9.1 326 15.4 101150 48
2011-07-26 07:22:16 51°20.876 2°52.576 13.8 325 15.4 101150 46
2011-07-26 07:22:21 51°20.893 2°52.575 14.5 304 15.4 101150 46
2011-07-26 07:22:25 51°20.907 2°52.574 13.3 323 15.4 101170 48
2011-07-26 07:22:31 51°20.927 2°52.574 13.2 301 15.4 101170 48
2011-07-26 07:22:36 51°20.944 2°52.574 6.5 323 15.4 101170 47
2011-07-26 07:22:41 51°20.962 2°52.575 12.8 323 15.4 101170 47
2011-07-26 07:22:45 51°20.975 2°52.575 12.4 323 15.4 101160 47
2011-07-26 07:22:51 51°20.995 2°52.576 10.1 304 15.4 101160 47
2011-07-26 07:22:56 51°21.012 2°52.577 5.5 320 15.4 101150 47
2011-07-26 07:23:01 51°21.029 2°52.578 11.5 305 15.4 101150 47
2011-07-26 07:23:05 51°21.042 2°52.578 10.3 322 15.3 101160 47
2011-07-26 07:23:11 51°21.063 2°52.58 12.5 307 15.3 101160 47
2011-07-26 07:23:16 51°21.079 2°52.581 12.3 322 15.3 101140 47
2011-07-26 07:23:21 51°21.096 2°52.581 12.5 305 15.3 101140 47
2011-07-26 07:23:25 51°21.11 2°52.582 6.2 323 15.3 101170 47
2011-07-26 07:23:31 51°21.13 2°52.583 10.6 305 15.3 101170 47
2011-07-26 07:23:36 51°21.147 2°52.583 14 324 15.3 101150 48
2011-07-26 07:23:41 51°21.164 2°52.583 13.8 282 15.3 101150 48
2011-07-26 07:23:45 51°21.177 2°52.583 13.8 324 15.3 101150 47
2011-07-26 07:23:51 51°21.198 2°52.584 9.9 303 15.3 101150 47
2011-07-26 07:23:56 51°21.215 2°52.584 10.8 327 15.3 101150 47
2011-07-26 07:24:01 51°21.232 2°52.583 10.8 325 15.3 101150 47
2011-07-26 07:24:05 51°21.246 2°52.582 12.1 325 15.3 101160 47
2011-07-26 07:24:11 51°21.266 2°52.581 6.8 327 15.3 101160 47
2011-07-26 07:24:16 51°21.283 2°52.579 14.1 324 15.3 101150 48
2011-07-26 07:24:21 51°21.3 2°52.578 13.2 325 15.3 101150 48
2011-07-26 07:24:25 51°21.313 2°52.577 12.9 325 15.3 101170 48
2011-07-26 07:24:31 51°21.334 2°52.575 14.1 328 15.3 101170 48
2011-07-26 07:24:36 51°21.351 2°52.574 6.5 327 15.3 101160 48
2011-07-26 07:24:41 51°21.369 2°52.574 10.2 303 15.3 101160 48
2011-07-26 07:24:45 51°21.382 2°52.573 13.5 324 15.4 101160 48
2011-07-26 07:24:51 51°21.403 2°52.572 13.5 303 15.4 101160 48
2011-07-26 07:24:56 51°21.42 2°52.571 10.6 322 15.4 101160 47
2011-07-26 07:25:01 51°21.438 2°52.571 9.6 305 15.4 101160 47
2011-07-26 07:25:05 51°21.452 2°52.57 10.4 324 15.4 101160 48
2011-07-26 07:25:11 51°21.473 2°52.57 13.2 303 15.4 101160 48
2011-07-26 07:25:16 51°21.49 2°52.569 10.9 322 15.4 101160 47
2011-07-26 07:25:21 51°21.508 2°52.569 12.3 305 15.4 101160 47
2011-07-26 07:25:25 51°21.522 2°52.569 5.7 323 15.4 101150 48
2011-07-26 07:25:31 51°21.542 2°52.569 13.8 304 15.4 101150 48
2011-07-26 07:25:36 51°21.56 2°52.57 6.7 324 15.4 101170 48
2011-07-26 07:25:41 51°21.577 2°52.571 13.2 278 15.4 101170 48
2011-07-26 07:25:45 51°21.591 2°52.571 14.2 323 15.4 101160 49
2011-07-26 07:25:51 51°21.612 2°52.572 10.7 304 15.4 101160 49
2011-07-26 07:25:56 51°21.629 2°52.574 5.4 323 15.4 101160 48
2011-07-26 07:26:01 51°21.646 2°52.575 6.5 302 15.4 101160 48
2011-07-26 07:26:05 51°21.66 2°52.575 6.2 323 15.4 101170 47
2011-07-26 07:26:11 51°21.681 2°52.577 13.8 324 15.4 101170 47
2011-07-26 07:26:16 51°21.698 2°52.577 11.7 324 15.4 101160 47
2011-07-26 07:26:21 51°21.715 2°52.578 12.8 324 15.4 101160 47
2011-07-26 07:26:26 51°21.733 2°52.578 13.5 325 15.3 101160 48
2011-07-26 07:26:31 51°21.75 2°52.578 10.9 324 15.3 101160 48
2011-07-26 07:26:36 51°21.767 2°52.578 10.1 323 15.3 101160 47
2011-07-26 07:26:41 51°21.785 2°52.578 12.2 301 15.3 101160 47
2011-07-26 07:26:45 51°21.798 2°52.578 12.7 322 15.3 101170 47
2011-07-26 07:26:51 51°21.819 2°52.578 10.9 305 15.3 101170 47
2011-07-26 07:26:56 51°21.836 2°52.577 11.6 322 15.3 101160 48
2011-07-26 07:27:01 51°21.853 2°52.577 10.4 305 15.3 101160 48
2011-07-26 07:27:05 51°21.867 2°52.577 13.7 322 15.3 101160 48
2011-07-26 07:27:11 51°21.887 2°52.576 13.6 305 15.3 101160 48
2011-07-26 07:27:16 51°21.905 2°52.575 14.4 324 15.3 101140 47
2011-07-26 07:27:21 51°21.922 2°52.574 14 303 15.3 101140 47
2011-07-26 07:27:25 51°21.936 2°52.573 13 327 15.2 101150 47
2011-07-26 07:27:31 51°21.957 2°52.572 12.5 303 15.2 101150 47
2011-07-26 07:27:36 51°21.975 2°52.571 11.9 323 15.3 101170 46
2011-07-26 07:27:41 51°21.992 2°52.569 11.5 279 15.3 101170 46
2011-07-26 07:27:45 51°22.006 2°52.568 10.3 323 15.3 101160 47
2011-07-26 07:27:51 51°22.026 2°52.567 14 325 15.3 101160 47
2011-07-26 07:27:56 51°22.043 2°52.566 6.1 323 15.3 101160 47
2011-07-26 07:28:01 51°22.061 2°52.565 14.1 307 15.3 101160 47
2011-07-26 07:28:05 51°22.075 2°52.566 14.4 321 15.3 101160 48
2011-07-26 07:28:11 51°22.095 2°52.566 14 305 15.3 101160 48
2011-07-26 07:28:16 51°22.113 2°52.567 13.3 322 15.3 101160 48
2011-07-26 07:28:21 51°22.13 2°52.568 11.6 321 15.3 101160 48
2011-07-26 07:28:25 51°22.144 2°52.569 12.5 322 15.3 101160 47
2011-07-26 07:28:31 51°22.164 2°52.57 9.9 325 15.3 101160 47
2011-07-26 07:28:36 51°22.181 2°52.57 11.8 323 15.3 101150 48
2011-07-26 07:28:41 51°22.199 2°52.571 10.7 301 15.3 101150 48
2011-07-26 07:28:45 51°22.213 2°52.572 5.5 325 15.3 101160 48
2011-07-26 07:28:51 51°22.233 2°52.573 11.7 324 15.3 101160 48
2011-07-26 07:28:56 51°22.251 2°52.574 7.1 325 15.3 101150 48
2011-07-26 07:29:01 51°22.269 2°52.575 11.2 326 15.3 101150 48
2011-07-26 07:29:05 51°22.282 2°52.575 13.6 325 15.3 101170 48
2011-07-26 07:29:11 51°22.303 2°52.575 11.6 326 15.3 101170 48
2011-07-26 07:29:16 51°22.32 2°52.575 5.9 325 15.3 101160 47
2011-07-26 07:29:21 51°22.336 2°52.574 6.4 326 15.3 101160 47
2011-07-26 07:29:25 51°22.349 2°52.574 6.7 325 15.2 101160 48
2011-07-26 07:29:31 51°22.37 2°52.573 12.3 325 15.2 101160 48
2011-07-26 07:29:36 51°22.387 2°52.572 12.4 324 15.2 101150 47
2011-07-26 07:29:41 51°22.404 2°52.571 14.7 280 15.2 101150 47
2011-07-26 07:29:45 51°22.418 2°52.571 12.8 324 15.2 101150 47
2011-07-26 07:29:50 51°22.435 2°52.571 12 324 15.2 101150 47
2011-07-26 07:29:56 51°22.456 2°52.57 6 324 15.2 101160 47
2011-07-26 07:30:01 51°22.473 2°52.57 13.6 324 15.2 101160 47
2011-07-26 07:30:05 51°22.487 2°52.57 13.7 323 15.1 101160 47
2011-07-26 07:30:09 51°22.501 2°52.57 12.3 305 15.1 101160 47
2011-07-26 07:30:15 51°22.522 2°52.57 5.7 323 15.1 101170 45
2011-07-26 07:30:21 51°22.543 2°52.57 12.2 305 15.1 101170 45
2011-07-26 07:30:25 51°22.557 2°52.57 11.4 324 15.1 101160 46
2011-07-26 07:30:31 51°22.577 2°52.57 13.9 326 15.1 101160 46
2011-07-26 07:30:36 51°22.595 2°52.571 6.1 325 15.1 101150 47
2011-07-26 07:30:41 51°22.612 2°52.571 5.9 303 15.1 101150 47
2011-07-26 07:30:45 51°22.626 2°52.571 13.2 326 15.1 101160 46
2011-07-26 07:30:51 51°22.646 2°52.571 6.2 303 15.1 101160 46
2011-07-26 07:30:56 51°22.664 2°52.571 14.4 324 15.1 101170 47
2011-07-26 07:31:01 51°22.681 2°52.57 11.1 304 15.1 101170 47
2011-07-26 07:31:05 51°22.695 2°52.569 10.1 326 15.1 101150 47
2011-07-26 07:31:11 51°22.716 2°52.568 12 326 15.1 101150 47
2011-07-26 07:31:16 51°22.734 2°52.568 5.8 324 15.2 101160 47
2011-07-26 07:31:21 51°22.751 2°52.567 5.9 305 15.2 101160 47
2011-07-26 07:31:25 51°22.765 2°52.566 11.7 323 15.2 101160 47
2011-07-26 07:31:31 51°22.786 2°52.565 11.4 328 15.2 101160 47
2011-07-26 07:31:36 51°22.804 2°52.565 10.8 326 15.2 101160 48
2011-07-26 07:31:41 51°22.821 2°52.566 5.9 280 15.2 101160 48
2011-07-26 07:31:45 51°22.835 2°52.566 10.4 325 15.3 101150 47
2011-07-26 07:31:50 51°22.853 2°52.568 6.4 303 15.3 101150 47
2011-07-26 07:31:56 51°22.874 2°52.569 11.9 322 15.3 101150 48
2011-07-26 07:32:01 51°22.891 2°52.571 13.3 304 15.3 101150 48
2011-07-26 07:32:05 51°22.905 2°52.571 13.7 324 15.3 101160 47
2011-07-26 07:32:10 51°22.922 2°52.573 10.8 302 15.3 101160 47
2011-07-26 07:32:16 51°22.944 2°52.574 10.6 324 15.3 101160 48
2011-07-26 07:32:21 51°22.961 2°52.575 13.8 303 15.3 101160 48
2011-07-26 07:32:25 51°22.975 2°52.576 7 324 15.3 101150 47
2011-07-26 07:32:30 51°22.992 2°52.577 9.8 306 15.3 101150 47
2011-07-26 07:32:36 51°23.012 2°52.579 5.8 321 15.3 101150 47
2011-07-26 07:32:41 51°23.029 2°52.58 13.9 306 15.3 101150 47
2011-07-26 07:32:45 51°23.042 2°52.581 12.8 322 15.3 101150 48
2011-07-26 07:32:50 51°23.059 2°52.583 6.6 323 15.3 101150 48
2011-07-26 07:32:56 51°23.08 2°52.584 15.4 322 15.3 101140 46
2011-07-26 07:33:01 51°23.097 2°52.586 12 305 15.3 101140 46
2011-07-26 07:33:05 51°23.111 2°52.587 13.3 325 15.3 101150 47
2011-07-26 07:33:11 51°23.132 2°52.587 13.1 324 15.3 101150 47
2011-07-26 07:33:15 51°23.146 2°52.588 13.3 323 15.3 101150 48
2011-07-26 07:33:21 51°23.167 2°52.588 9 304 15.3 101150 48
2011-07-26 07:33:25 51°23.18 2°52.588 11.6 322 15.3 101150 48
2011-07-26 07:33:31 51°23.201 2°52.587 6.8 303 15.3 101150 48
2011-07-26 07:33:36 51°23.218 2°52.586 12.9 322 15.3 101150 48
2011-07-26 07:33:41 51°23.235 2°52.585 12.6 281 15.3 101150 48
2011-07-26 07:33:45 51°23.249 2°52.585 12.1 323 15.3 101160 47
2011-07-26 07:33:51 51°23.27 2°52.584 8 323 15.3 101160 47
2011-07-26 07:33:56 51°23.287 2°52.583 13.9 324 15.3 101150 47
2011-07-26 07:34:01 51°23.304 2°52.582 12.8 325 15.3 101150 47
2011-07-26 07:34:05 51°23.318 2°52.582 6.4 323 15.2 101170 48
2011-07-26 07:34:10 51°23.335 2°52.581 5.5 304 15.2 101170 48
2011-07-26 07:34:16 51°23.356 2°52.581 13.6 323 15.2 101160 47
2011-07-26 07:34:21 51°23.374 2°52.581 6 305 15.2 101160 47
2011-07-26 07:34:25 51°23.388 2°52.581 5.9 322 15.3 101150 47
2011-07-26 07:34:30 51°23.405 2°52.582 11.4 303 15.3 101150 47
2011-07-26 07:34:36 51°23.426 2°52.581 11.4 326 15.3 101150 47
2011-07-26 07:34:41 51°23.444 2°52.581 14.5 324 15.3 101150 47
2011-07-26 07:34:45 51°23.457 2°52.581 5.5 326 15.3 101150 47
2011-07-26 07:34:50 51°23.475 2°52.58 12.4 302 15.3 101150 47
2011-07-26 07:34:55 51°23.492 2°52.58 5.6 326 15.3 101170 48
2011-07-26 07:35:01 51°23.513 2°52.58 6.1 303 15.3 101170 48
2011-07-26 07:35:05 51°23.527 2°52.58 7.3 325 15.3 101160 48
2011-07-26 07:35:10 51°23.545 2°52.58 10.1 305 15.3 101160 48
2011-07-26 07:35:16 51°23.565 2°52.58 6.2 325 15.3 101160 48
2011-07-26 07:35:21 51°23.582 2°52.581 13.8 306 15.3 101160 48
2011-07-26 07:35:25 51°23.596 2°52.581 12.3 322 15.4 101160 48
2011-07-26 07:35:31 51°23.616 2°52.583 11.9 303 15.4 101160 48
2011-07-26 07:35:36 51°23.633 2°52.584 5.8 321 15.4 101150 46
2011-07-26 07:35:41 51°23.65 2°52.585 6.2 285 15.4 101150 46
2011-07-26 07:35:45 51°23.664 2°52.586 6.5 323 15.4 101170 47
2011-07-26 07:35:51 51°23.684 2°52.587 12.5 322 15.4 101170 47
2011-07-26 07:35:55 51°23.698 2°52.588 5.8 323 15.3 101150 47
2011-07-26 07:36:01 51°23.718 2°52.589 5.6 305 15.3 101150 47
2011-07-26 07:36:05 51°23.732 2°52.591 12.8 323 15.3 101160 48
2011-07-26 07:36:10 51°23.749 2°52.591 13.6 324 15.3 101160 48
2011-07-26 07:36:16 51°23.77 2°52.592 11.1 324 15.3 101150 46
2011-07-26 07:36:21 51°23.787 2°52.593 13.8 307 15.3 101150 46
2011-07-26 07:36:25 51°23.801 2°52.593 10.7 323 15.3 101160 47
2011-07-26 07:36:30 51°23.818 2°52.593 6.6 303 15.3 101160 47
2011-07-26 07:36:36 51°23.838 2°52.592 14.9 326 15.3 101160 48
2011-07-26 07:36:41 51°23.856 2°52.59 14.7 327 15.3 101160 48
2011-07-26 07:36:45 51°23.869 2°52.59 14 327 15.3 101150 47
2011-07-26 07:36:50 51°23.886 2°52.588 10 327 15.3 101150 47
2011-07-26 07:36:55 51°23.904 2°52.588 6.4 326 15.3 101160 47
2011-07-26 07:37:01 51°23.924 2°52.586 3.3 327 15.3 101160 47
2011-07-26 07:37:05 51°23.937 2°52.585 6.7 327 15.3 101170 48
2011-07-26 07:37:10 51°23.955 2°52.584 11.1 326 15.3 101170 48
2011-07-26 07:37:16 51°23.974 2°52.583 12.1 324 15.3 101160 48
2011-07-26 07:37:21 51°23.99 2°52.583 5.9 301 15.3 101160 48
2011-07-26 07:37:26 51°24.006 2°52.584 11.6 324 15.3 101170 48
2011-07-26 07:37:31 51°24.022 2°52.585 13.7 303 15.3 101170 48
2011-07-26 07:37:36 51°24.039 2°52.585 6.4 322 15.3 101150 48
2011-07-26 07:37:41 51°24.056 2°52.587 12.6 281 15.3 101150 48
2011-07-26 07:37:46 51°24.072 2°52.589 6.2 322 15.4 101170 48
2011-07-26 07:37:50 51°24.085 2°52.59 6.7 305 15.4 101170 48
2011-07-26 07:37:56 51°24.106 2°52.592 6.9 321 15.3 101170 47
2011-07-26 07:38:01 51°24.123 2°52.593 11.2 305 15.3 101170 47
2011-07-26 07:38:05 51°24.137 2°52.595 12.2 321 15.3 101140 48
2011-07-26 07:38:11 51°24.157 2°52.597 6.6 305 15.3 101140 48
2011-07-26 07:38:15 51°24.17 2°52.598 15.6 321 15.3 101150 46
2011-07-26 07:38:21 51°24.191 2°52.601 11.3 309 15.3 101150 46
2011-07-26 07:38:25 51°24.204 2°52.602 6.2 320 15.3 101150 48
2011-07-26 07:38:30 51°24.221 2°52.603 6.3 302 15.3 101150 48
2011-07-26 07:38:36 51°24.242 2°52.604 11.9 321 15.3 101160 48
2011-07-26 07:38:41 51°24.259 2°52.604 12.3 303 15.3 101160 48
2011-07-26 07:38:45 51°24.272 2°52.604 13 320 15.3 101160 48
2011-07-26 07:38:50 51°24.29 2°52.604 13.4 303 15.3 101160 48
2011-07-26 07:38:56 51°24.31 2°52.604 10.1 320 15.3 101160 48
2011-07-26 07:39:01 51°24.327 2°52.604 13.8 304 15.3 101160 48
2011-07-26 07:39:05 51°24.341 2°52.605 13.7 320 15.3 101160 47
2011-07-26 07:39:10 51°24.358 2°52.604 14 306 15.3 101160 47
2011-07-26 07:39:15 51°24.375 2°52.604 11.4 320 15.3 101160 48
2011-07-26 07:39:21 51°24.395 2°52.605 6.4 307 15.3 101160 48
2011-07-26 07:39:25 51°24.409 2°52.605 10.4 322 15.3 101170 48
2011-07-26 07:39:31 51°24.429 2°52.605 5.9 304 15.3 101170 48
2011-07-26 07:39:35 51°24.443 2°52.605 11 321 15.3 101160 48
2011-07-26 07:39:41 51°24.464 2°52.605 6 282 15.3 101160 48
2011-07-26 07:39:45 51°24.477 2°52.606 14.3 321 15.3 101160 47
2011-07-26 07:39:51 51°24.498 2°52.607 3.5 305 15.3 101160 47
2011-07-26 07:39:55 51°24.511 2°52.607 6.8 323 15.3 101160 48
2011-07-26 07:40:01 51°24.532 2°52.608 12.7 307 15.3 101160 48
2011-07-26 07:40:05 51°24.545 2°52.609 14.6 321 15.3 101150 48
2011-07-26 07:40:11 51°24.566 2°52.611 10.8 307 15.3 101150 48
2011-07-26 07:40:15 51°24.579 2°52.612 13.4 319 15.3 101160 47
2011-07-26 07:40:21 51°24.599 2°52.614 9.9 307 15.3 101160 47
2011-07-26 07:40:25 51°24.612 2°52.615 12.8 321 15.3 101150 48
2011-07-26 07:40:30 51°24.629 2°52.617 13.6 323 15.3 101150 48
2011-07-26 07:40:36 51°24.65 2°52.618 13.1 322 15.3 101150 47
2011-07-26 07:40:41 51°24.666 2°52.619 11.6 322 15.3 101150 47
2011-07-26 07:40:45 51°24.68 2°52.619 11.7 321 15.3 101150 48
2011-07-26 07:40:50 51°24.697 2°52.62 11.6 307 15.3 101150 48
2011-07-26 07:40:56 51°24.717 2°52.62 13.9 324 15.4 101150 46
2011-07-26 07:41:01 51°24.734 2°52.62 10.2 307 15.4 101150 46
2011-07-26 07:41:05 51°24.748 2°52.62 10.2 320 15.3 101160 48
2011-07-26 07:41:10 51°24.764 2°52.621 6.5 304 15.3 101160 48
2011-07-26 07:41:16 51°24.784 2°52.621 14.7 322 15.3 101160 47
2011-07-26 07:41:21 51°24.8 2°52.622 6.1 304 15.3 101160 47
2011-07-26 07:41:25 51°24.813 2°52.622 10.5 323 15.3 101170 48
2011-07-26 07:41:30 51°24.83 2°52.621 12.9 323 15.3 101170 48
2011-07-26 07:41:35 51°24.847 2°52.621 15.4 324 15.3 101180 48
2011-07-26 07:41:41 51°24.867 2°52.62 13.3 279 15.3 101180 48
2011-07-26 07:41:45 51°24.881 2°52.62 5.8 323 15.3 101160 47
2011-07-26 07:41:51 51°24.901 2°52.619 13.1 325 15.3 101160 47
2011-07-26 07:41:55 51°24.914 2°52.618 16.2 326 15.3 101170 48
2011-07-26 07:42:01 51°24.935 2°52.618 14.2 324 15.3 101170 48
2011-07-26 07:42:05 51°24.948 2°52.618 14.3 324 15.3 101180 48
2011-07-26 07:42:11 51°24.969 2°52.618 6.4 305 15.3 101180 48
2011-07-26 07:42:15 51°24.982 2°52.619 12.3 324 15.3 101160 48
2011-07-26 07:42:21 51°25.003 2°52.62 10.9 305 15.3 101160 48
2011-07-26 07:42:25 51°25.017 2°52.62 10.2 323 15.2 101180 48
2011-07-26 07:42:31 51°25.037 2°52.623 14 305 15.2 101180 48
2011-07-26 07:42:36 51°25.054 2°52.624 14.6 324 15.2 101160 48
2011-07-26 07:42:41 51°25.072 2°52.626 11.5 306 15.2 101160 48
2011-07-26 07:42:45 51°25.085 2°52.627 6.5 325 15.2 101180 47
2011-07-26 07:42:50 51°25.103 2°52.628 13.8 322 15.2 101180 47
2011-07-26 07:42:56 51°25.123 2°52.63 6.6 321 15.2 101170 47
2011-07-26 07:43:01 51°25.141 2°52.63 6.4 302 15.2 101170 47
2011-07-26 07:43:05 51°25.154 2°52.63 11.9 323 15.3 101170 48
2011-07-26 07:43:10 51°25.172 2°52.63 14.4 305 15.3 101170 48
2011-07-26 07:43:16 51°25.192 2°52.63 13.2 323 15.3 101160 48
2011-07-26 07:43:21 51°25.21 2°52.629 13.5 305 15.3 101160 48
2011-07-26 07:43:25 51°25.224 2°52.629 6.5 324 15.3 101160 48
2011-07-26 07:43:30 51°25.241 2°52.628 15.1 304 15.3 101160 48
2011-07-26 07:43:36 51°25.261 2°52.626 13.8 323 15.3 101160 46
2011-07-26 07:43:41 51°25.279 2°52.625 6.4 283 15.3 101160 46
2011-07-26 07:43:45 51°25.292 2°52.624 6.1 324 15.3 101150 47
2011-07-26 07:43:50 51°25.309 2°52.622 13.5 325 15.3 101150 47
2011-07-26 07:43:56 51°25.33 2°52.62 15.7 325 15.3 101180 47
2011-07-26 07:44:01 51°25.347 2°52.618 12.7 305 15.3 101180 47
2011-07-26 07:44:05 51°25.361 2°52.617 13.6 326 15.3 101160 48
2011-07-26 07:44:10 51°25.378 2°52.616 13.3 327 15.3 101160 48
2011-07-26 07:44:15 51°25.395 2°52.615 5.8 327 15.3 101170 47
2011-07-26 07:44:21 51°25.416 2°52.613 13.5 327 15.3 101170 47
2011-07-26 07:44:25 51°25.43 2°52.613 13.9 327 15.3 101170 48
2011-07-26 07:44:31 51°25.45 2°52.611 13.7 327 15.3 101170 48
2011-07-26 07:44:35 51°25.464 2°52.61 16.5 326 15.3 101170 48
2011-07-26 07:44:41 51°25.484 2°52.609 13.9 306 15.3 101170 48
2011-07-26 07:44:45 51°25.498 2°52.609 15.1 322 15.3 101170 47
2011-07-26 07:44:51 51°25.518 2°52.609 14 324 15.3 101170 47
2011-07-26 07:44:55 51°25.532 2°52.609 13 323 15.3 101170 48
2011-07-26 07:45:01 51°25.553 2°52.609 15.3 324 15.3 101170 48
2011-07-26 07:45:05 51°25.567 2°52.609 7.3 324 15.3 101160 48
2011-07-26 07:45:11 51°25.587 2°52.609 13.6 301 15.3 101160 48
2011-07-26 07:45:16 51°25.605 2°52.609 13.3 324 15.3 101150 48
2011-07-26 07:45:21 51°25.622 2°52.61 6.3 303 15.3 101150 48
2011-07-26 07:45:25 51°25.636 2°52.61 14.2 323 15.3 101150 47
2011-07-26 07:45:30 51°25.653 2°52.61 7.3 304 15.3 101150 47
2011-07-26 07:45:36 51°25.674 2°52.611 16.6 323 15.2 101170 47
2011-07-26 07:45:41 51°25.691 2°52.612 6.9 277 15.2 101170 47
2011-07-26 07:45:45 51°25.705 2°52.612 13.7 323 15.2 101160 48
2011-07-26 07:45:50 51°25.722 2°52.612 11 325 15.2 101160 48
2011-07-26 07:45:55 51°25.74 2°52.613 13.5 325 15.2 101160 47
2011-07-26 07:46:01 51°25.761 2°52.612 3.4 303 15.2 101160 47
2011-07-26 07:46:05 51°25.774 2°52.613 4.7 326 15.2 101170 47
2011-07-26 07:46:10 51°25.791 2°52.612 15 302 15.2 101170 47
2011-07-26 07:46:15 51°25.808 2°52.612 6.5 324 15.2 101170 46
2011-07-26 07:46:21 51°25.828 2°52.611 14.3 305 15.2 101170 46
2011-07-26 07:46:25 51°25.841 2°52.61 13.3 326 15.2 101160 47
2011-07-26 07:46:30 51°25.858 2°52.609 14.3 325 15.2 101160 47
2011-07-26 07:46:35 51°25.875 2°52.608 13.4 324 15.2 101180 47
2011-07-26 07:46:41 51°25.895 2°52.605 13.2 304 15.2 101180 47
2011-07-26 07:46:45 51°25.909 2°52.604 12.8 323 15.2 101180 48
2011-07-26 07:46:51 51°25.929 2°52.602 14 304 15.2 101180 48
2011-07-26 07:46:55 51°25.943 2°52.6 14.9 327 15.2 101180 47
2011-07-26 07:47:01 51°25.963 2°52.597 6.5 327 15.2 101180 47
2011-07-26 07:47:05 51°25.977 2°52.595 6.6 326 15.2 101170 48
2011-07-26 07:47:11 51°25.997 2°52.592 12.6 304 15.2 101170 48
2011-07-26 07:47:15 51°26.011 2°52.59 4.4 322 15.3 101170 48
2011-07-26 07:47:21 51°26.031 2°52.587 14.1 324 15.3 101170 48
2011-07-26 07:47:25 51°26.045 2°52.584 12.2 325 15.3 101160 48
2011-07-26 07:47:30 51°26.062 2°52.583 13.4 327 15.3 101160 48
2011-07-26 07:47:36 51°26.083 2°52.58 14.2 325 15.3 101150 48
2011-07-26 07:47:41 51°26.1 2°52.578 6.5 285 15.3 101150 48
2011-07-26 07:47:45 51°26.114 2°52.577 15.1 327 15.2 101170 47
2011-07-26 07:47:50 51°26.131 2°52.575 12.5 329 15.2 101170 47
2011-07-26 07:47:56 51°26.152 2°52.574 4.9 329 15.3 101160 48
2011-07-26 07:48:01 51°26.169 2°52.573 7 328 15.3 101160 48
2011-07-26 07:48:05 51°26.183 2°52.572 6.9 328 15.3 101160 48
2011-07-26 07:48:10 51°26.2 2°52.57 12.3 328 15.3 101160 48
2011-07-26 07:48:15 51°26.217 2°52.568 6.8 327 15.3 101170 48
2011-07-26 07:48:21 51°26.238 2°52.567 8.9 326 15.3 101170 48
2011-07-26 07:48:25 51°26.252 2°52.566 13 324 15.2 101170 48
2011-07-26 07:48:31 51°26.272 2°52.565 3.4 328 15.2 101170 48
2011-07-26 07:48:35 51°26.286 2°52.564 11.7 327 15.2 101170 48
2011-07-26 07:48:41 51°26.306 2°52.563 6.8 328 15.2 101170 48
2011-07-26 07:48:45 51°26.32 2°52.562 6.2 326 15.2 101170 48
2011-07-26 07:48:51 51°26.34 2°52.56 10.6 324 15.2 101170 48
2011-07-26 07:48:55 51°26.354 2°52.558 13.2 328 15.2 101170 46
2011-07-26 07:49:01 51°26.375 2°52.556 4.3 327 15.2 101170 46
2011-07-26 07:49:05 51°26.388 2°52.554 11.1 326 15.2 101190 48
2011-07-26 07:49:11 51°26.409 2°52.552 15.2 326 15.2 101190 48
2011-07-26 07:49:15 51°26.423 2°52.55 11.4 325 15.2 101170 48
2011-07-26 07:49:21 51°26.443 2°52.548 13.7 325 15.2 101170 48
2011-07-26 07:49:25 51°26.457 2°52.546 6.2 325 15.3 101180 48
2011-07-26 07:49:30 51°26.474 2°52.544 11.1 303 15.3 101180 48
2011-07-26 07:49:36 51°26.495 2°52.542 11.9 323 15.3 101180 48
2011-07-26 07:49:41 51°26.512 2°52.54 12.4 281 15.3 101180 48
2011-07-26 07:49:45 51°26.526 2°52.538 6.7 326 15.2 101170 48
2011-07-26 07:49:50 51°26.543 2°52.536 10.2 302 15.2 101170 48
2011-07-26 07:49:56 51°26.563 2°52.533 11.8 325 15.2 101180 48
2011-07-26 07:50:01 51°26.58 2°52.531 12.5 302 15.2 101180 48
2011-07-26 07:50:05 51°26.593 2°52.53 6.6 325 15.3 101170 48
2011-07-26 07:50:10 51°26.61 2°52.529 6.7 301 15.3 101170 48
2011-07-26 07:50:16 51°26.63 2°52.527 16 324 15.3 101160 48
2011-07-26 07:50:21 51°26.647 2°52.527 12.9 305 15.3 101160 48
2011-07-26 07:50:26 51°26.664 2°52.526 6.1 322 15.2 101170 47
2011-07-26 07:50:31 51°26.68 2°52.526 5.9 305 15.2 101170 47
2011-07-26 07:50:36 51°26.697 2°52.525 11.8 325 15.2 101170 48
2011-07-26 07:50:41 51°26.714 2°52.526 13.1 322 15.2 101170 48
2011-07-26 07:50:45 51°26.728 2°52.527 7 320 15.2 101160 47
2011-07-26 07:50:51 51°26.749 2°52.527 11 306 15.2 101160 47
2011-07-26 07:50:56 51°26.766 2°52.528 12.9 321 15.2 101180 48
2011-07-26 07:51:01 51°26.783 2°52.529 6.9 304 15.2 101180 48
2011-07-26 07:51:05 51°26.797 2°52.53 3.5 321 15.2 101180 48
2011-07-26 07:51:11 51°26.817 2°52.532 12.5 308 15.2 101180 48
2011-07-26 07:51:16 51°26.834 2°52.533 12.4 323 15.2 101160 48
2011-07-26 07:51:21 51°26.851 2°52.533 14.1 305 15.2 101160 48
2011-07-26 07:51:25 51°26.865 2°52.534 6.4 321 15.2 101170 48
2011-07-26 07:51:31 51°26.886 2°52.536 6.2 307 15.2 101170 48
2011-07-26 07:51:36 51°26.903 2°52.537 15 320 15.2 101180 47
2011-07-26 07:51:41 51°26.919 2°52.539 15.1 279 15.2 101180 47
2011-07-26 07:51:45 51°26.933 2°52.54 6.7 319 15.2 101170 48
2011-07-26 07:51:51 51°26.953 2°52.541 6.5 303 15.2 101170 48
2011-07-26 07:51:56 51°26.97 2°52.542 11.4 321 15.2 101170 48
2011-07-26 07:52:01 51°26.987 2°52.543 11.7 325 15.2 101170 48
2011-07-26 07:52:05 51°27.001 2°52.543 12 325 15.2 101160 48
2011-07-26 07:52:10 51°27.018 2°52.542 4.4 303 15.2 101160 48
2011-07-26 07:52:16 51°27.038 2°52.542 7.1 325 15.2 101160 47
2011-07-26 07:52:21 51°27.055 2°52.54 6.8 328 15.2 101160 47
2011-07-26 07:52:25 51°27.069 2°52.538 6.3 327 15.2 101180 48
2011-07-26 07:52:30 51°27.086 2°52.536 14.3 326 15.2 101180 48
2011-07-26 07:52:35 51°27.103 2°52.533 11.9 326 15.2 101180 48
2011-07-26 07:52:41 51°27.123 2°52.531 11.4 281 15.2 101180 48
2011-07-26 07:52:45 51°27.137 2°52.529 3.1 327 15.1 101170 47
2011-07-26 07:52:50 51°27.154 2°52.527 6.9 303 15.1 101170 47
2011-07-26 07:52:55 51°27.17 2°52.525 15.4 327 15.1 101180 48
2011-07-26 07:53:01 51°27.19 2°52.523 13.2 302 15.1 101180 48
2011-07-26 07:53:05 51°27.203 2°52.521 14.2 326 15.2 101170 48
2011-07-26 07:53:10 51°27.22 2°52.519 12.4 301 15.2 101170 48
2011-07-26 07:53:16 51°27.241 2°52.517 14 327 15.1 101190 47
2011-07-26 07:53:21 51°27.257 2°52.515 11.1 302 15.1 101190 47
2011-07-26 07:53:25 51°27.271 2°52.515 15 322 15.1 101190 47
2011-07-26 07:53:31 51°27.291 2°52.513 12.8 304 15.1 101190 47
2011-07-26 07:53:35 51°27.304 2°52.513 6.1 323 15.1 101180 48
2011-07-26 07:53:41 51°27.325 2°52.511 11.8 323 15.1 101180 48
2011-07-26 07:53:45 51°27.338 2°52.511 13.4 325 15.1 101190 48
2011-07-26 07:53:51 51°27.359 2°52.509 17.3 325 15.1 101190 48
2011-07-26 07:53:56 51°27.375 2°52.508 3.6 327 15.1 101180 48
2011-07-26 07:54:01 51°27.393 2°52.508 13.6 324 15.1 101180 48
2011-07-26 07:54:05 51°27.406 2°52.507 7 325 15.1 101170 48
2011-07-26 07:54:10 51°27.423 2°52.506 14.9 327 15.1 101170 48
2011-07-26 07:54:16 51°27.443 2°52.504 12.3 328 15.1 101180 46
2011-07-26 07:54:21 51°27.46 2°52.504 13 305 15.1 101180 46
2011-07-26 07:54:25 51°27.474 2°52.503 15.5 325 15.1 101170 48
2011-07-26 07:54:30 51°27.491 2°52.502 6.2 326 15.1 101170 48
2011-07-26 07:54:36 51°27.512 2°52.501 13 326 15.1 101170 47
2011-07-26 07:54:41 51°27.528 2°52.5 13.5 279 15.1 101170 47
2011-07-26 07:54:45 51°27.542 2°52.499 13.5 326 15 101190 48
2011-07-26 07:54:50 51°27.559 2°52.498 6.7 327 15 101190 48
2011-07-26 07:54:56 51°27.58 2°52.497 13 325 15 101180 47
2011-07-26 07:55:01 51°27.597 2°52.496 13.5 325 15 101180 47
2011-07-26 07:55:05 51°27.611 2°52.495 13.4 325 15 101170 48
2011-07-26 07:55:10 51°27.628 2°52.494 12.7 325 15 101170 48
2011-07-26 07:55:15 51°27.645 2°52.494 11.5 324 15 101180 48
2011-07-26 07:55:21 51°27.666 2°52.493 11.4 324 15 101180 48
2011-07-26 07:55:25 51°27.68 2°52.493 12.7 323 15 101170 47
2011-07-26 07:55:30 51°27.697 2°52.492 13.6 306 15 101170 47
2011-07-26 07:55:36 51°27.717 2°52.492 12.7 323 15 101180 48
2011-07-26 07:55:41 51°27.735 2°52.491 6.2 301 15 101180 48
2011-07-26 07:55:45 51°27.748 2°52.491 6.9 323 15 101170 48
2011-07-26 07:55:51 51°27.769 2°52.49 13.6 322 15 101170 48
2011-07-26 07:55:56 51°27.786 2°52.489 11.7 324 15 101190 48
2011-07-26 07:56:01 51°27.803 2°52.489 5.6 303 15 101190 48
2011-07-26 07:56:05 51°27.817 2°52.488 10.7 327 15 101170 48
2011-07-26 07:56:11 51°27.837 2°52.486 6.9 303 15 101170 48
2011-07-26 07:56:16 51°27.854 2°52.485 11.8 324 15 101180 48
2011-07-26 07:56:21 51°27.872 2°52.483 15.9 305 15 101180 48
2011-07-26 07:56:25 51°27.885 2°52.482 12 324 15 101180 48
2011-07-26 07:56:30 51°27.902 2°52.48 6.4 303 15 101180 48
2011-07-26 07:56:36 51°27.923 2°52.479 7.1 324 15 101180 48